Saturday, April 30, 2016
16:57 UTC
  |  Log In   |  Register Free
Airport Search:

Coleman Municipal Airport
(KCOM)

Coleman Municipal Airport Diagram
No Airport Diagram Available

FAA data valid effective Mar 31 2016 - May 26 2016 (unless otherwise noted).

 
 
 
 
 
 
 
 
 
 
 
 
 
 
Current Aviation Weather for KCOM

Weather Summary


The most recent METAR observation for COM was updated at: 12:55 UTC
METAR for KCOM is not available. Closest METAR is for KBWD
KCOM  (most recent observation was updatred at 30:14 UTC)
301455Z AUTO 36010KT 10SM CLR 15/09 A2985 RMK AO2 T01530091

KBWD  (23.0 nm NW)   (most recent observation was updated at 30:16 UTC)
301635Z AUTO 35006KT 10SM CLR 18/10 A2985 RMK AO2

TAF for KCOM is not available.
GlobalAir.com is loading additional information.
 Current Weather at COM
60.0 F° (15.3 C°)

North winds at 11.5 mph
Pressure:
29.85 in
Humidity:
67%
Wind:
North at 11.5 mph
Dew Point:
48.4 F° (9.1 C°)
Visibility:
10.00 mi
COM NOAA Radar




Find All Airport Services Find A Hotel Find A Rental Car Find A Golf Course Find A Restaurant $100 Hamburger



Airport Weather Forecast for KCOM

Translated METAR for KCOM (1455 UTC)
METAR:
KCOM 301455Z AUTO 36010KT 10SM CLR 15/09 A2985 RMK AO2 T01530091
Conditions at:
KCOM (Coleman Muni, TX) observed 1455 UTC 30 April 2016
Temperature:
15°C (59°F)
Dewpoint:
9°C (48.2°F) [RH = 67.4]
Pressure:
29.85 inches Hg (1010.8 mb)
Winds:
from the N (360 degrees) at 11.5 mph (10 knots: 5.1 m/s)
Visibility:
10 mile(s)
Ceiling:
at least 12,000 feet AGL
Clouds:
Clear below 12,000 feet AGL
Remarks:
site is un-manned
site is automated and HAS a precipitation sensor

Translated TAF for TAF for COM is not available. Refer to local area forecast.
FBO's on the Field
FBO Company Facility Photos Services Transportation Aviation Fuel Prices: Prices include tax
Catering Weather Repair Courtesy Rental Type 100LL JetA JetA+ MOGAS 8087
 
Add another FBO Facility Photos Catering Weather Repair Courtesy Rental Type 100LL JetA JetA+ MOGAS 8087
Services Transportation Aviation Fuel Prices: Prices include tax
There are no FBO's currently reporting fuel at COM. List your FBO now


model-print
model-print
model-print
model-print